Rayford, Texas
Current Conditions -  °F | °C
As of 9:53 PM on Friday 19 Dec 2014 (Local Time) from KIAH Reporting Station
Overcast Overcast  
Wind Chill: 12°   Ceiling: 800
Heat Index: 12°   Visibility: 10mi
Dew Point: 11°   Wind: 9mph
Humidity: 93%   Direction: 360°N
Pressure: 30.12"   Gusts: NA
Location:  30.0613°N, 95.3841°W
Report Text: KIAH 200353Z 36008KT 10SM OVC008 12/11 A3012 RMK AO2 SLP201 T01170106
Loading
Personal Weather Stations






























Interactive Weather Map New forecast layout! Learn more

10-Day Weather Forecast

Advertisements
Track Severe Weather on mobile